Latest  Newer  Older  Last 2 hours animation  Current image  Latest image 
Rain/snow radar  Infrared sat images 
Real-time lightning map

All time is UTC (add 2 hours to UTC in wintertime, 3 hours to UTC in DST for Latvia local time)

2018/08/16 17:20 EVRA 161720Z 06004KT CAVOK 21/15 Q1019 NOSIG
2018/08/16 17:20 EVLA 161720Z AUTO 00000KT 9999 NCD 21/16 Q1019
2018/08/16 17:20 EVVA 161720Z AUTO VRB02KT CAVOK 20/16 Q1019
2018/08/16 17:20 EYKA 161720Z 15003KT CAVOK 21/14 Q1019
2018/08/16 17:20 EYPA 161720Z 00000KT CAVOK 20/18 Q1019
2018/08/16 17:20 EYSA 161720Z 23003KT CAVOK 22/12 Q1020 BLU NOSIG
2018/08/16 17:20 EYVI 161720Z 06004KT CAVOK 20/14 Q1020 NOSIG
2018/08/16 14:50 EEKA 161450Z 06004KT 9999 FEW040 21/13 Q1019
2018/08/16 16:50 EEKE 161650Z AUTO 20006KT 9999NDV NCD 20/15 Q1019
2018/08/16 12:50 EEPU 161250Z 21008KT CAVOK 21/14 Q1019
2018/08/16 17:20 EETN 161720Z 02003KT 9999 FEW040 20/12 Q1019 NOSIG
2018/08/16 16:50 EETU 161650Z AUTO 14005KT 9999 SCT032/// 21/13 Q1019
   RIGA AIRPORT     EVRA               56 55N  023 58E   10   X     T          6 LV
   LIEPAJA INTL     EVLA        26406  56 31N  021 06E    4   X                8 LV
   VENTPILS         EVVA               57 21N  021 33E    6   X                8 LV
   KAUNAS           EYKA               54 54N  023 55E   77   X     T          6 LT
   PALANGA INTL     EYPA               55 55N  021 03E   10   X                6 LT
   SIAULIAI INTL    EYSA               55 54N  023 24E  135   X     T          6 LT
   VILNIUS INTL     EYVI        26730  54 38N  025 17E  197   X     T          6 LT
   KARDLA           EEKA        26116  58 59N  022 50E    4   X                8 EE
   KURESSAARE       EEKE               58 14N  022 31E    4   X                8 EE
   PARNU            EEPU               58 25N  024 28E   14   X                8 EE
   TALLINN          EETN        26038  59 24N  024 49E   40   X     T          8 EE
   TARTU            EETU               58 19N  026 41E   67   X                8 EE

cloud coverage image from sat24.com and METAR data from weather.noaa.gov